Time,TemperatureF,DewpointF,PressureIn,WindDirection,WindDirectionDegrees,WindSpeedMPH,WindSpeedGustMPH,Humidity,HourlyPrecipIn,Conditions,Clouds,dailyrainin,SoftwareType,DateUTC
2013-02-18 00:00:00,10.3,7.7,30.35,SE,146,0.0,0.0,89,0.00,,,0.00,WUHU216DAVISVP2,2013-02-18 05:00:00,
2013-02-18 00:05:00,10.4,8.0,30.35,SE,146,0.0,0.0,90,0.00,,,0.00,WUHU216DAVISVP2,2013-02-18 05:05:00,
2013-02-18 00:10:00,10.5,8.1,30.35,SE,146,0.0,0.0,90,0.00,,,0.00,WUHU216DAVISVP2,2013-02-18 05:10:00,
2013-02-18 00:15:00,10.6,8.0,30.35,SE,146,0.0,0.0,89,0.00,,,0.00,WUHU216DAVISVP2,2013-02-18 05:15:00,
2013-02-18 00:20:00,10.5,7.9,30.36,SE,146,0.0,0.0,89,0.00,,,0.00,WUHU216DAVISVP2,2013-02-18 05:20:00,
2013-02-18 00:25:00,10.1,7.5,30.36,SE,146,0.0,0.0,89,0.00,,,0.00,WUHU216DAVISVP2,2013-02-18 05:25:00,
2013-02-18 00:30:00,9.9,7.6,30.36,SE,146,0.0,0.0,90,0.00,,,0.00,WUHU216DAVISVP2,2013-02-18 05:30:00,
2013-02-18 00:35:00,10.0,7.6,30.36,SE,146,0.0,0.0,90,0.00,,,0.00,WUHU216DAVISVP2,2013-02-18 05:35:00,
2013-02-18 00:40:00,10.0,7.6,30.36,SE,146,0.0,0.0,90,0.00,,,0.00,WUHU216DAVISVP2,2013-02-18 05:40:00,
2013-02-18 00:45:00,9.8,7.5,30.36,SE,146,0.0,0.0,90,0.00,,,0.00,WUHU216DAVISVP2,2013-02-18 05:45:00,
2013-02-18 00:50:00,9.4,6.8,30.35,SE,146,0.0,0.0,89,0.00,,,0.00,WUHU216DAVISVP2,2013-02-18 05:50:00,
2013-02-18 00:55:00,9.3,6.9,30.35,SE,146,0.0,0.0,90,0.00,,,0.00,WUHU216DAVISVP2,2013-02-18 05:55:00,
2013-02-18 01:00:00,9.2,6.8,30.35,SE,146,0.0,0.0,90,0.00,,,0.00,WUHU216DAVISVP2,2013-02-18 06:00:00,
2013-02-18 01:05:00,9.4,7.3,30.35,SE,146,0.0,0.0,91,0.00,,,0.00,WUHU216DAVISVP2,2013-02-18 06:05:00,
2013-02-18 01:10:00,9.3,7.2,30.36,SE,146,0.0,0.0,91,0.00,,,0.00,WUHU216DAVISVP2,2013-02-18 06:10:00,
2013-02-18 01:15:00,9.0,6.6,30.36,SE,146,0.0,1.0,90,0.00,,,0.00,WUHU216DAVISVP2,2013-02-18 06:15:00,
2013-02-18 01:20:00,8.7,6.3,30.37,SSE,147,0.0,1.0,90,0.00,,,0.00,WUHU216DAVISVP2,2013-02-18 06:20:00,
2013-02-18 01:25:00,8.7,6.6,30.37,SE,146,0.0,1.0,91,0.00,,,0.00,WUHU216DAVISVP2,2013-02-18 06:25:00,
2013-02-18 01:30:00,8.9,6.8,30.36,SE,136,0.0,1.0,91,0.00,,,0.00,WUHU216DAVISVP2,2013-02-18 06:30:00,
2013-02-18 01:35:00,9.1,7.0,30.36,SE,137,0.0,0.0,91,0.00,,,0.00,WUHU216DAVISVP2,2013-02-18 06:35:00,
2013-02-18 01:40:00,9.1,7.0,30.36,SE,136,0.0,0.0,91,0.00,,,0.00,WUHU216DAVISVP2,2013-02-18 06:40:00,
2013-02-18 01:45:00,9.0,6.9,30.36,SE,136,0.0,0.0,91,0.00,,,0.00,WUHU216DAVISVP2,2013-02-18 06:45:00,
2013-02-18 01:50:00,8.9,6.5,30.37,SE,136,0.0,0.0,90,0.00,,,0.00,WUHU216DAVISVP2,2013-02-18 06:50:00,
2013-02-18 01:55:00,8.9,6.8,30.36,SE,136,0.0,0.0,91,0.00,,,0.00,WUHU216DAVISVP2,2013-02-18 06:55:00,
2013-02-18 02:00:00,8.7,6.3,30.36,SE,136,0.0,0.0,90,0.00,,,0.00,WUHU216DAVISVP2,2013-02-18 07:00:00,
2013-02-18 02:05:00,8.6,6.5,30.36,SE,136,0.0,0.0,91,0.00,,,0.00,WUHU216DAVISVP2,2013-02-18 07:05:00,
2013-02-18 02:10:00,8.7,6.6,30.36,SE,136,0.0,0.0,91,0.00,,,0.00,WUHU216DAVISVP2,2013-02-18 07:10:00,
2013-02-18 02:15:00,8.7,6.6,30.36,SE,136,0.0,0.0,91,0.00,,,0.00,WUHU216DAVISVP2,2013-02-18 07:15:00,
2013-02-18 02:20:00,8.5,6.1,30.37,SE,136,0.0,0.0,90,0.00,,,0.00,WUHU216DAVISVP2,2013-02-18 07:20:00,
2013-02-18 02:25:00,8.0,5.6,30.37,SE,136,0.0,0.0,90,0.00,,,0.00,WUHU216DAVISVP2,2013-02-18 07:25:00,
2013-02-18 02:30:00,8.0,5.9,30.37,SE,136,0.0,0.0,91,0.00,,,0.00,WUHU216DAVISVP2,2013-02-18 07:30:00,
2013-02-18 02:35:00,8.2,6.1,30.37,SE,136,0.0,0.0,91,0.00,,,0.00,WUHU216DAVISVP2,2013-02-18 07:35:00,
2013-02-18 02:40:00,8.3,6.2,30.37,SE,137,0.0,0.0,91,0.00,,,0.00,WUHU216DAVISVP2,2013-02-18 07:40:00,
2013-02-18 02:45:00,8.1,5.7,30.37,SE,137,0.0,0.0,90,0.00,,,0.00,WUHU216DAVISVP2,2013-02-18 07:45:00,
2013-02-18 02:50:00,8.1,6.0,30.37,SE,136,0.0,0.0,91,0.00,,,0.00,WUHU216DAVISVP2,2013-02-18 07:50:00,
2013-02-18 02:55:00,8.1,6.0,30.37,SE,136,0.0,0.0,91,0.00,,,0.00,WUHU216DAVISVP2,2013-02-18 07:55:00,
2013-02-18 03:00:00,8.3,6.2,30.37,SE,136,0.0,0.0,91,0.00,,,0.00,WUHU216DAVISVP2,2013-02-18 08:00:00,
2013-02-18 03:05:00,8.3,6.2,30.37,SE,136,0.0,0.0,91,0.00,,,0.00,WUHU216DAVISVP2,2013-02-18 08:05:00,
2013-02-18 03:10:00,8.2,6.1,30.37,SE,136,0.0,0.0,91,0.00,,,0.00,WUHU216DAVISVP2,2013-02-18 08:10:00,
2013-02-18 03:15:00,7.9,5.5,30.37,SE,136,0.0,0.0,90,0.00,,,0.00,WUHU216DAVISVP2,2013-02-18 08:15:00,
2013-02-18 03:20:00,7.9,5.8,30.37,SE,136,0.0,0.0,91,0.00,,,0.00,WUHU216DAVISVP2,2013-02-18 08:20:00,
2013-02-18 03:25:00,7.7,5.6,30.37,SE,137,0.0,0.0,91,0.00,,,0.00,WUHU216DAVISVP2,2013-02-18 08:25:00,
2013-02-18 03:30:00,7.4,5.0,30.37,SE,136,0.0,0.0,90,0.00,,,0.00,WUHU216DAVISVP2,2013-02-18 08:30:00,
2013-02-18 03:35:00,7.2,4.9,30.36,SE,137,0.0,0.0,90,0.00,,,0.00,WUHU216DAVISVP2,2013-02-18 08:35:00,
2013-02-18 03:40:00,7.3,5.2,30.36,SE,136,0.0,0.0,91,0.00,,,0.00,WUHU216DAVISVP2,2013-02-18 08:40:00,
2013-02-18 03:45:00,7.5,5.4,30.36,SE,136,0.0,0.0,91,0.00,,,0.00,WUHU216DAVISVP2,2013-02-18 08:45:00,
2013-02-18 03:50:00,7.5,5.4,30.36,SE,137,0.0,0.0,91,0.00,,,0.00,WUHU216DAVISVP2,2013-02-18 08:50:00,
2013-02-18 03:55:00,7.2,4.8,30.36,SE,137,0.0,0.0,90,0.00,,,0.00,WUHU216DAVISVP2,2013-02-18 08:55:00,
2013-02-18 04:00:00,7.0,4.6,30.36,SE,136,0.0,0.0,90,0.00,,,0.00,WUHU216DAVISVP2,2013-02-18 09:00:00,
2013-02-18 04:05:00,7.3,5.2,30.36,SE,136,0.0,0.0,91,0.00,,,0.00,WUHU216DAVISVP2,2013-02-18 09:05:00,
2013-02-18 04:10:00,7.3,5.2,30.36,SE,136,0.0,0.0,91,0.00,,,0.00,WUHU216DAVISVP2,2013-02-18 09:10:00,
2013-02-18 04:15:00,7.2,5.1,30.36,SE,136,0.0,0.0,91,0.00,,,0.00,WUHU216DAVISVP2,2013-02-18 09:15:00,
2013-02-18 04:20:00,7.1,5.0,30.36,SE,136,0.0,0.0,91,0.00,,,0.00,WUHU216DAVISVP2,2013-02-18 09:20:00,
2013-02-18 04:25:00,7.0,4.9,30.36,SE,136,0.0,0.0,91,0.00,,,0.00,WUHU216DAVISVP2,2013-02-18 09:25:00,
2013-02-18 04:30:00,7.0,4.9,30.36,SE,136,0.0,0.0,91,0.00,,,0.00,WUHU216DAVISVP2,2013-02-18 09:30:00,
2013-02-18 04:35:00,7.0,4.7,30.36,SE,136,0.0,0.0,90,0.00,,,0.00,WUHU216DAVISVP2,2013-02-18 09:35:00,
2013-02-18 04:40:00,6.6,4.0,30.37,SE,136,0.0,0.0,89,0.00,,,0.00,WUHU216DAVISVP2,2013-02-18 09:40:00,
2013-02-18 04:45:00,6.6,4.5,30.37,SE,137,0.0,0.0,91,0.00,,,0.00,WUHU216DAVISVP2,2013-02-18 09:45:00,
2013-02-18 04:50:00,6.8,4.7,30.37,SE,136,0.0,0.0,91,0.00,,,0.00,WUHU216DAVISVP2,2013-02-18 09:50:00,
2013-02-18 04:55:00,6.8,4.7,30.37,SE,136,0.0,0.0,91,0.00,,,0.00,WUHU216DAVISVP2,2013-02-18 09:55:00,
2013-02-18 05:00:00,7.0,4.9,30.38,SE,136,0.0,0.0,91,0.00,,,0.00,WUHU216DAVISVP2,2013-02-18 10:00:00,
2013-02-18 05:05:00,7.4,5.5,30.38,SE,137,0.0,0.0,92,0.00,,,0.00,WUHU216DAVISVP2,2013-02-18 10:05:00,
2013-02-18 05:10:00,7.4,5.3,30.38,SE,137,0.0,0.0,91,0.00,,,0.00,WUHU216DAVISVP2,2013-02-18 10:10:00,
2013-02-18 05:15:00,7.5,5.4,30.38,SE,136,0.0,0.0,91,0.00,,,0.00,WUHU216DAVISVP2,2013-02-18 10:15:00,
2013-02-18 05:20:00,7.4,5.3,30.39,SE,136,0.0,0.0,91,0.00,,,0.00,WUHU216DAVISVP2,2013-02-18 10:20:00,
2013-02-18 05:26:00,7.4,5.3,30.39,SE,136,0.0,0.0,91,0.00,,,0.00,WUHU216DAVISVP2,2013-02-18 10:26:00,
2013-02-18 05:31:00,7.5,5.4,30.38,SE,136,0.0,0.0,91,0.00,,,0.00,WUHU216DAVISVP2,2013-02-18 10:31:00,
2013-02-18 05:35:00,7.3,5.0,30.38,SE,137,0.0,0.0,90,0.00,,,0.00,WUHU216DAVISVP2,2013-02-18 10:35:00,
2013-02-18 05:40:00,7.1,4.7,30.38,SE,136,0.0,0.0,90,0.00,,,0.00,WUHU216DAVISVP2,2013-02-18 10:40:00,
2013-02-18 05:45:00,6.7,4.1,30.39,SE,136,0.0,0.0,89,0.00,,,0.00,WUHU216DAVISVP2,2013-02-18 10:45:00,
2013-02-18 05:50:00,6.4,3.8,30.39,SE,137,0.0,0.0,89,0.00,,,0.00,WUHU216DAVISVP2,2013-02-18 10:50:00,
2013-02-18 05:55:00,6.7,4.6,30.39,SE,137,0.0,0.0,91,0.00,,,0.00,WUHU216DAVISVP2,2013-02-18 10:55:00,
2013-02-18 06:01:00,7.2,5.1,30.39,SE,137,0.0,0.0,91,0.00,,,0.00,WUHU216DAVISVP2,2013-02-18 11:01:00,
2013-02-18 06:06:00,7.2,5.1,30.39,SE,136,0.0,0.0,91,0.00,,,0.00,WUHU216DAVISVP2,2013-02-18 11:06:00,
2013-02-18 06:11:00,7.2,5.1,30.39,SE,136,0.0,0.0,91,0.00,,,0.00,WUHU216DAVISVP2,2013-02-18 11:11:00,
2013-02-18 06:16:00,7.4,5.3,30.39,SE,136,0.0,0.0,91,0.00,,,0.00,WUHU216DAVISVP2,2013-02-18 11:16:00,
2013-02-18 06:21:00,7.5,5.4,30.39,SE,136,0.0,0.0,91,0.00,,,0.00,WUHU216DAVISVP2,2013-02-18 11:21:00,
2013-02-18 06:26:00,7.3,4.9,30.39,SE,136,0.0,0.0,90,0.00,,,0.00,WUHU216DAVISVP2,2013-02-18 11:26:00,
2013-02-18 06:31:00,6.9,4.5,30.39,SE,136,0.0,0.0,90,0.00,,,0.00,WUHU216DAVISVP2,2013-02-18 11:31:00,
2013-02-18 06:36:00,6.9,4.5,30.39,SE,136,0.0,0.0,90,0.00,,,0.00,WUHU216DAVISVP2,2013-02-18 11:36:00,
2013-02-18 06:41:00,6.7,4.4,30.39,SE,137,0.0,0.0,90,0.00,,,0.00,WUHU216DAVISVP2,2013-02-18 11:41:00,
2013-02-18 06:46:00,6.8,4.5,30.39,SE,136,0.0,0.0,90,0.00,,,0.00,WUHU216DAVISVP2,2013-02-18 11:46:00,
2013-02-18 06:51:00,6.8,4.4,30.38,SE,137,0.0,0.0,90,0.00,,,0.00,WUHU216DAVISVP2,2013-02-18 11:51:00,
2013-02-18 06:56:00,6.7,4.3,30.38,SE,137,0.0,0.0,90,0.00,,,0.00,WUHU216DAVISVP2,2013-02-18 11:56:00,
2013-02-18 07:01:00,6.8,4.4,30.38,SE,136,0.0,0.0,90,0.00,,,0.00,WUHU216DAVISVP2,2013-02-18 12:01:00,
2013-02-18 07:06:00,6.8,4.4,30.38,SE,137,0.0,0.0,90,0.00,,,0.00,WUHU216DAVISVP2,2013-02-18 12:06:00,
2013-02-18 07:11:00,6.5,4.1,30.38,SE,136,0.0,0.0,90,0.00,,,0.00,WUHU216DAVISVP2,2013-02-18 12:11:00,
2013-02-18 07:16:00,6.4,4.1,30.38,SE,136,0.0,0.0,90,0.00,,,0.00,WUHU216DAVISVP2,2013-02-18 12:16:00,
2013-02-18 07:21:00,6.3,4.0,30.39,SE,137,0.0,0.0,90,0.00,,,0.00,WUHU216DAVISVP2,2013-02-18 12:21:00,
2013-02-18 07:26:00,6.1,3.8,30.39,SE,136,0.0,0.0,90,0.00,,,0.00,WUHU216DAVISVP2,2013-02-18 12:26:00,
2013-02-18 07:31:00,6.1,3.8,30.40,SE,136,0.0,0.0,90,0.00,,,0.00,WUHU216DAVISVP2,2013-02-18 12:31:00,
2013-02-18 07:36:00,6.5,4.4,30.39,SE,136,0.0,0.0,91,0.00,,,0.00,WUHU216DAVISVP2,2013-02-18 12:36:00,
2013-02-18 07:41:00,7.1,5.0,30.39,SE,136,0.0,0.0,91,0.00,,,0.00,WUHU216DAVISVP2,2013-02-18 12:41:00,
2013-02-18 07:46:00,7.5,5.4,30.39,SE,136,0.0,0.0,91,0.00,,,0.00,WUHU216DAVISVP2,2013-02-18 12:46:00,
2013-02-18 07:51:00,8.1,6.0,30.39,SE,136,0.0,0.0,91,0.00,,,0.00,WUHU216DAVISVP2,2013-02-18 12:51:00,
2013-02-18 07:56:00,8.7,6.6,30.39,SE,125,0.0,0.0,91,0.00,,,0.00,WUHU216DAVISVP2,2013-02-18 12:56:00,
2013-02-18 08:01:00,8.9,6.5,30.39,SE,125,0.0,0.0,90,0.00,,,0.00,WUHU216DAVISVP2,2013-02-18 13:01:00,
2013-02-18 08:06:00,9.6,7.5,30.39,SE,125,0.0,0.0,91,0.00,,,0.00,WUHU216DAVISVP2,2013-02-18 13:06:00,
2013-02-18 08:11:00,10.0,7.9,30.39,SE,125,0.0,0.0,91,0.00,,,0.00,WUHU216DAVISVP2,2013-02-18 13:11:00,
2013-02-18 08:16:00,10.5,8.1,30.39,SE,125,0.0,0.0,90,0.00,,,0.00,WUHU216DAVISVP2,2013-02-18 13:16:00,
2013-02-18 08:21:00,10.9,8.5,30.39,SE,125,0.0,0.0,90,0.00,,,0.00,WUHU216DAVISVP2,2013-02-18 13:21:00,
2013-02-18 08:26:00,11.6,9.2,30.39,SE,125,0.0,0.0,90,0.00,,,0.00,WUHU216DAVISVP2,2013-02-18 13:26:00,
2013-02-18 08:31:00,12.5,10.1,30.39,SE,125,0.0,0.0,90,0.00,,,0.00,WUHU216DAVISVP2,2013-02-18 13:31:00,
2013-02-18 08:36:00,13.2,10.3,30.38,SE,125,1.0,1.0,88,0.00,,,0.00,WUHU216DAVISVP2,2013-02-18 13:36:00,
2013-02-18 08:41:00,13.6,11.0,30.38,SE,125,0.0,1.0,89,0.00,,,0.00,WUHU216DAVISVP2,2013-02-18 13:41:00,
2013-02-18 08:46:00,14.1,11.5,30.38,NE,52,0.0,1.0,89,0.00,,,0.00,WUHU216DAVISVP2,2013-02-18 13:46:00,
2013-02-18 08:51:00,14.7,11.8,30.38,ENE,78,1.0,1.0,88,0.00,,,0.00,WUHU216DAVISVP2,2013-02-18 13:51:00,
2013-02-18 08:56:00,15.1,11.9,30.38,ENE,77,1.0,1.0,87,0.00,,,0.00,WUHU216DAVISVP2,2013-02-18 13:56:00,
2013-02-18 09:01:00,15.6,12.4,30.38,ENE,76,0.0,1.0,87,0.00,,,0.00,WUHU216DAVISVP2,2013-02-18 14:01:00,
2013-02-18 09:06:00,16.4,12.9,30.38,East,79,1.0,1.0,86,0.00,,,0.00,WUHU216DAVISVP2,2013-02-18 14:06:00,
2013-02-18 09:11:00,16.9,12.9,30.38,ENE,77,0.0,1.0,84,0.00,,,0.00,WUHU216DAVISVP2,2013-02-18 14:11:00,
2013-02-18 09:16:00,17.7,13.7,30.37,ENE,78,1.0,1.0,84,0.00,,,0.00,WUHU216DAVISVP2,2013-02-18 14:16:00,
2013-02-18 09:21:00,18.6,14.5,30.37,ENE,78,0.0,1.0,84,0.00,,,0.00,WUHU216DAVISVP2,2013-02-18 14:21:00,
2013-02-18 09:26:00,20.2,15.6,30.36,ENE,78,0.0,1.0,82,0.00,,,0.00,WUHU216DAVISVP2,2013-02-18 14:26:00,
2013-02-18 09:31:00,21.1,16.7,30.36,ENE,78,1.0,1.0,83,0.00,,,0.00,WUHU216DAVISVP2,2013-02-18 14:31:00,
2013-02-18 09:36:00,21.2,16.0,30.36,ENE,78,1.0,1.0,80,0.00,,,0.00,WUHU216DAVISVP2,2013-02-18 14:36:00,
2013-02-18 09:41:00,22.1,16.6,30.36,ENE,78,1.0,1.0,79,0.00,,,0.00,WUHU216DAVISVP2,2013-02-18 14:41:00,
2013-02-18 09:46:00,23.2,17.1,30.35,East,93,0.0,1.0,77,0.00,,,0.00,WUHU216DAVISVP2,2013-02-18 14:46:00,
2013-02-18 09:51:00,24.0,17.2,30.35,East,86,1.0,1.0,75,0.00,,,0.00,WUHU216DAVISVP2,2013-02-18 14:51:00,
2013-02-18 09:56:00,24.5,17.7,30.35,East,85,1.0,1.0,75,0.00,,,0.00,WUHU216DAVISVP2,2013-02-18 14:56:00,
2013-02-18 10:01:00,24.9,18.1,30.35,NNE,27,0.0,1.0,75,0.00,,,0.00,WUHU216DAVISVP2,2013-02-18 15:01:00,
2013-02-18 10:06:00,25.5,19.0,30.34,NNE,27,1.0,1.0,76,0.00,,,0.00,WUHU216DAVISVP2,2013-02-18 15:06:00,
2013-02-18 10:11:00,26.2,19.7,30.34,North,11,1.0,1.0,76,0.00,,,0.00,WUHU216DAVISVP2,2013-02-18 15:11:00,
2013-02-18 10:16:00,27.5,20.7,30.34,North,354,1.0,1.0,75,0.00,,,0.00,WUHU216DAVISVP2,2013-02-18 15:16:00,
2013-02-18 10:21:00,28.1,20.3,30.34,NE,56,1.1,2.0,72,0.00,,,0.00,WUHU216DAVISVP2,2013-02-18 15:21:00,
2013-02-18 10:26:00,28.6,20.8,30.33,NNW,346,1.0,2.0,72,0.00,,,0.00,WUHU216DAVISVP2,2013-02-18 15:26:00,
2013-02-18 10:31:00,29.5,21.3,30.33,NNW,330,0.0,2.0,71,0.00,,,0.00,WUHU216DAVISVP2,2013-02-18 15:31:00,
2013-02-18 10:36:00,30.6,21.7,30.33,North,357,1.0,2.0,69,0.00,,,0.00,WUHU216DAVISVP2,2013-02-18 15:36:00,
2013-02-18 10:41:00,31.3,22.0,30.33,NE,53,0.0,2.0,68,0.00,,,0.00,WUHU216DAVISVP2,2013-02-18 15:41:00,
2013-02-18 10:46:00,32.2,22.5,30.33,WSW,240,1.1,2.0,67,0.00,,,0.00,WUHU216DAVISVP2,2013-02-18 15:46:00,
2013-02-18 10:51:00,33.1,24.1,30.32,WSW,244,1.0,2.0,69,0.00,,,0.00,WUHU216DAVISVP2,2013-02-18 15:51:00,
2013-02-18 10:56:00,33.9,23.4,30.32,WSW,246,1.0,2.0,65,0.00,,,0.00,WUHU216DAVISVP2,2013-02-18 15:56:00,
2013-02-18 11:01:00,34.5,23.3,30.32,WSW,238,1.0,1.0,63,0.00,,,0.00,WUHU216DAVISVP2,2013-02-18 16:01:00,
2013-02-18 11:06:00,35.5,24.2,30.31,WNW,294,1.0,2.0,63,0.00,,,0.00,WUHU216DAVISVP2,2013-02-18 16:06:00,
2013-02-18 11:11:00,36.6,24.5,30.31,SW,214,1.0,2.0,61,0.00,,,0.00,WUHU216DAVISVP2,2013-02-18 16:11:00,
2013-02-18 11:16:00,38.0,25.8,30.31,West,266,1.1,2.0,61,0.00,,,0.00,WUHU216DAVISVP2,2013-02-18 16:16:00,
2013-02-18 11:21:00,39.1,24.7,30.31,WNW,286,1.0,2.0,56,0.00,,,0.00,WUHU216DAVISVP2,2013-02-18 16:21:00,
2013-02-18 11:26:00,40.1,24.8,30.30,WSW,251,1.0,2.0,54,0.00,,,0.00,WUHU216DAVISVP2,2013-02-18 16:26:00,
2013-02-18 11:31:00,40.7,23.5,30.30,West,262,2.0,3.0,50,0.00,,,0.00,WUHU216DAVISVP2,2013-02-18 16:31:00,
2013-02-18 11:36:00,41.6,23.8,30.30,WNW,290,1.0,3.0,49,0.00,,,0.00,WUHU216DAVISVP2,2013-02-18 16:36:00,
2013-02-18 11:42:00,42.3,22.3,30.29,ENE,77,3.0,5.0,45,0.00,,,0.00,WUHU216DAVISVP2,2013-02-18 16:42:00,
2013-02-18 11:47:00,43.3,23.8,30.28,East,99,3.0,7.0,46,0.00,,,0.00,WUHU216DAVISVP2,2013-02-18 16:47:00,
2013-02-18 11:52:00,43.9,22.1,30.28,East,82,3.0,7.0,42,0.00,,,0.00,WUHU216DAVISVP2,2013-02-18 16:52:00,
2013-02-18 11:57:00,44.2,22.4,30.28,ESE,119,1.5,7.0,42,0.01,,,0.01,WUHU216DAVISVP2,2013-02-18 16:57:00,
2013-02-18 12:02:00,44.9,21.8,30.28,SE,126,2.0,7.0,40,0.01,,,0.01,WUHU216DAVISVP2,2013-02-18 17:02:00,
2013-02-18 12:06:00,45.5,22.4,30.27,ESE,121,3.0,6.0,40,0.01,,,0.01,WUHU216DAVISVP2,2013-02-18 17:06:00,
2013-02-18 12:12:00,46.1,22.3,30.27,WSW,242,2.0,6.0,39,0.01,,,0.01,WUHU216DAVISVP2,2013-02-18 17:12:00,
2013-02-18 12:17:00,46.2,22.4,30.26,WNW,282,1.9,6.0,39,0.01,,,0.01,WUHU216DAVISVP2,2013-02-18 17:17:00,
2013-02-18 12:22:00,46.9,23.6,30.26,NNW,339,2.8,6.0,40,0.01,,,0.01,WUHU216DAVISVP2,2013-02-18 17:22:00,
2013-02-18 12:27:00,47.3,23.4,30.26,SE,140,3.0,7.0,39,0.01,,,0.01,WUHU216DAVISVP2,2013-02-18 17:27:00,
2013-02-18 12:32:00,47.6,22.6,30.25,ESE,112,2.8,8.0,37,0.01,,,0.01,WUHU216DAVISVP2,2013-02-18 17:32:00,
2013-02-18 12:37:00,47.8,24.4,30.25,West,263,2.0,8.0,40,0.01,,,0.01,WUHU216DAVISVP2,2013-02-18 17:37:00,
2013-02-18 12:42:00,48.2,22.3,30.25,SE,145,1.0,7.0,36,0.01,,,0.01,WUHU216DAVISVP2,2013-02-18 17:42:00,
2013-02-18 12:47:00,48.5,22.7,30.24,SE,141,1.9,7.0,36,0.01,,,0.01,WUHU216DAVISVP2,2013-02-18 17:47:00,
2013-02-18 12:52:00,49.1,23.9,30.24,East,89,2.0,7.0,37,0.01,,,0.01,WUHU216DAVISVP2,2013-02-18 17:52:00,
2013-02-18 12:57:00,49.5,24.3,30.23,WSW,242,3.1,6.0,37,0.00,,,0.01,WUHU216DAVISVP2,2013-02-18 17:57:00,
2013-02-18 13:02:00,49.5,24.3,30.23,East,99,3.8,7.0,37,0.00,,,0.01,WUHU216DAVISVP2,2013-02-18 18:02:00,
2013-02-18 13:07:00,49.7,24.9,30.23,ESE,104,1.7,7.0,38,0.00,,,0.01,WUHU216DAVISVP2,2013-02-18 18:07:00,
2013-02-18 13:12:00,50.1,25.3,30.22,West,266,1.7,7.0,38,0.00,,,0.01,WUHU216DAVISVP2,2013-02-18 18:12:00,
2013-02-18 13:17:00,50.6,25.1,30.22,WSW,241,3.0,7.0,37,0.00,,,0.01,WUHU216DAVISVP2,2013-02-18 18:17:00,
2013-02-18 13:22:00,50.9,26.6,30.21,West,260,1.0,5.0,39,0.00,,,0.01,WUHU216DAVISVP2,2013-02-18 18:22:00,
2013-02-18 13:27:00,51.4,26.4,30.21,ESE,112,4.0,6.0,38,0.00,,,0.01,WUHU216DAVISVP2,2013-02-18 18:27:00,
2013-02-18 13:32:00,51.3,25.7,30.20,ENE,70,4.0,8.0,37,0.00,,,0.01,WUHU216DAVISVP2,2013-02-18 18:32:00,
2013-02-18 13:37:00,51.3,26.3,30.20,WSW,251,1.2,8.0,38,0.00,,,0.01,WUHU216DAVISVP2,2013-02-18 18:37:00,
2013-02-18 13:42:00,51.5,26.5,30.20,WNW,291,2.0,8.0,38,0.00,,,0.01,WUHU216DAVISVP2,2013-02-18 18:42:00,
2013-02-18 13:47:00,51.9,26.9,30.19,SW,234,1.4,8.0,38,0.00,,,0.01,WUHU216DAVISVP2,2013-02-18 18:47:00,
2013-02-18 13:52:00,52.1,27.7,30.18,NNE,21,2.0,5.0,39,0.00,,,0.01,WUHU216DAVISVP2,2013-02-18 18:52:00,
2013-02-18 13:57:00,52.3,27.2,30.18,ESE,114,1.6,6.0,38,0.00,,,0.01,WUHU216DAVISVP2,2013-02-18 18:57:00,
2013-02-18 14:02:00,52.4,27.3,30.18,SW,215,3.3,7.0,38,0.00,,,0.01,WUHU216DAVISVP2,2013-02-18 19:02:00,
2013-02-18 14:07:00,52.4,27.3,30.17,ESE,116,3.5,9.0,38,0.00,,,0.01,WUHU216DAVISVP2,2013-02-18 19:07:00,
2013-02-18 14:12:00,52.7,28.2,30.17,ESE,106,1.2,9.0,39,0.00,,,0.01,WUHU216DAVISVP2,2013-02-18 19:12:00,
2013-02-18 14:17:00,53.0,27.9,30.17,ESE,110,3.1,8.0,38,0.00,,,0.01,WUHU216DAVISVP2,2013-02-18 19:17:00,
2013-02-18 14:23:00,52.8,27.9,30.17,West,266,1.8,10.0,38,0.00,,,0.01,WUHU216DAVISVP2,2013-02-18 19:23:00,
2013-02-18 14:28:00,53.1,29.4,30.16,SW,228,3.0,10.0,40,0.00,,,0.01,WUHU216DAVISVP2,2013-02-18 19:28:00,
2013-02-18 14:33:00,53.4,29.0,30.16,WSW,241,2.9,9.0,39,0.00,,,0.01,WUHU216DAVISVP2,2013-02-18 19:33:00,
2013-02-18 14:38:00,53.6,28.6,30.16,SSW,199,1.4,7.0,38,0.00,,,0.01,WUHU216DAVISVP2,2013-02-18 19:38:00,
2013-02-18 14:43:00,54.1,29.7,30.16,WSW,238,1.9,6.0,39,0.00,,,0.01,WUHU216DAVISVP2,2013-02-18 19:43:00,
2013-02-18 14:48:00,54.5,30.6,30.15,ESE,110,3.1,11.0,40,0.00,,,0.01,WUHU216DAVISVP2,2013-02-18 19:48:00,
2013-02-18 14:53:00,55.0,31.1,30.15,NE,50,2.0,11.0,40,0.00,,,0.01,WUHU216DAVISVP2,2013-02-18 19:53:00,
2013-02-18 14:58:00,55.1,31.8,30.15,West,261,5.6,10.0,41,0.00,,,0.01,WUHU216DAVISVP2,2013-02-18 19:58:00,
2013-02-18 15:03:00,54.8,31.5,30.15,West,263,3.4,10.0,41,0.00,,,0.01,WUHU216DAVISVP2,2013-02-18 20:03:00,
2013-02-18 15:08:00,55.1,31.7,30.15,West,263,4.2,11.0,41,0.00,,,0.01,WUHU216DAVISVP2,2013-02-18 20:08:00,
2013-02-18 15:13:00,54.7,31.4,30.15,WSW,255,4.1,11.0,41,0.00,,,0.01,WUHU216DAVISVP2,2013-02-18 20:13:00,
2013-02-18 15:18:00,54.9,32.1,30.15,WNW,285,6.0,10.0,42,0.00,,,0.01,WUHU216DAVISVP2,2013-02-18 20:18:00,
2013-02-18 15:23:00,55.1,32.3,30.15,WNW,287,3.0,10.0,42,0.00,,,0.01,WUHU216DAVISVP2,2013-02-18 20:23:00,
2013-02-18 15:28:00,55.2,33.0,30.14,West,269,3.7,10.0,43,0.00,,,0.01,WUHU216DAVISVP2,2013-02-18 20:28:00,
2013-02-18 15:33:00,55.3,31.8,30.14,WSW,237,2.3,10.0,41,0.00,,,0.01,WUHU216DAVISVP2,2013-02-18 20:33:00,
2013-02-18 15:38:00,55.5,33.2,30.14,WSW,257,3.0,8.0,43,0.00,,,0.01,WUHU216DAVISVP2,2013-02-18 20:38:00,
2013-02-18 15:43:00,55.6,32.7,30.14,ESE,108,1.5,8.0,42,0.00,,,0.01,WUHU216DAVISVP2,2013-02-18 20:43:00,
2013-02-18 15:48:00,55.6,33.3,30.14,WNW,296,1.3,5.0,43,0.00,,,0.01,WUHU216DAVISVP2,2013-02-18 20:48:00,
2013-02-18 15:53:00,55.8,32.9,30.13,WSW,239,1.0,4.0,42,0.00,,,0.01,WUHU216DAVISVP2,2013-02-18 20:53:00,
2013-02-18 15:58:00,56.0,32.5,30.13,SSE,162,1.0,3.0,41,0.00,,,0.01,WUHU216DAVISVP2,2013-02-18 20:58:00,
2013-02-18 16:03:00,56.0,32.5,30.13,SE,136,1.0,3.0,41,0.00,,,0.01,WUHU216DAVISVP2,2013-02-18 21:03:00,
2013-02-18 16:08:00,55.9,33.0,30.13,SE,135,1.0,2.0,42,0.00,,,0.01,WUHU216DAVISVP2,2013-02-18 21:08:00,
2013-02-18 16:13:00,55.6,33.3,30.13,SW,215,1.8,4.0,43,0.00,,,0.01,WUHU216DAVISVP2,2013-02-18 21:13:00,
2013-02-18 16:18:00,55.6,33.9,30.13,WSW,249,1.5,4.0,44,0.00,,,0.01,WUHU216DAVISVP2,2013-02-18 21:18:00,
2013-02-18 16:23:00,55.7,34.0,30.13,East,101,2.0,4.0,44,0.00,,,0.01,WUHU216DAVISVP2,2013-02-18 21:23:00,
2013-02-18 16:28:00,55.5,34.4,30.13,WSW,256,1.7,4.0,45,0.00,,,0.01,WUHU216DAVISVP2,2013-02-18 21:28:00,
2013-02-18 16:33:00,55.4,33.7,30.13,SSE,164,1.0,5.0,44,0.00,,,0.01,WUHU216DAVISVP2,2013-02-18 21:33:00,
2013-02-18 16:38:00,55.4,33.7,30.13,WSW,250,1.4,5.0,44,0.00,,,0.01,WUHU216DAVISVP2,2013-02-18 21:38:00,
2013-02-18 16:43:00,55.1,34.0,30.13,WSW,246,1.0,5.0,45,0.00,,,0.01,WUHU216DAVISVP2,2013-02-18 21:43:00,
2013-02-18 16:49:00,55.0,33.9,30.13,SW,231,1.0,5.0,45,0.00,,,0.01,WUHU216DAVISVP2,2013-02-18 21:49:00,
2013-02-18 16:54:00,54.8,34.3,30.13,WSW,245,1.2,2.0,46,0.00,,,0.01,WUHU216DAVISVP2,2013-02-18 21:54:00,
2013-02-18 16:59:00,54.7,34.3,30.12,WSW,248,1.0,2.0,46,0.00,,,0.01,WUHU216DAVISVP2,2013-02-18 21:59:00,
2013-02-18 17:04:00,54.6,34.1,30.12,WSW,248,1.0,2.0,46,0.00,,,0.01,WUHU216DAVISVP2,2013-02-18 22:04:00,
2013-02-18 17:09:00,54.6,34.1,30.12,SE,127,2.0,2.0,46,0.00,,,0.01,WUHU216DAVISVP2,2013-02-18 22:09:00,
2013-02-18 17:14:00,54.2,34.9,30.12,ESE,112,1.1,2.0,48,0.00,,,0.01,WUHU216DAVISVP2,2013-02-18 22:14:00,
2013-02-18 17:19:00,53.4,33.6,30.12,ESE,111,3.0,6.0,47,0.00,,,0.01,WUHU216DAVISVP2,2013-02-18 22:19:00,
2013-02-18 17:24:00,53.2,32.3,30.12,ESE,122,8.0,10.0,45,0.00,,,0.01,WUHU216DAVISVP2,2013-02-18 22:24:00,
2013-02-18 17:29:00,52.9,32.6,30.12,SSE,155,1.9,10.0,46,0.00,,,0.01,WUHU216DAVISVP2,2013-02-18 22:29:00,
2013-02-18 17:34:00,52.6,31.8,30.12,SE,134,3.0,9.0,45,0.00,,,0.01,WUHU216DAVISVP2,2013-02-18 22:34:00,
2013-02-18 17:39:00,52.5,31.1,30.12,SW,234,1.8,9.0,44,0.00,,,0.01,WUHU216DAVISVP2,2013-02-18 22:39:00,
2013-02-18 17:44:00,52.3,31.5,30.11,SE,138,1.0,5.0,45,0.00,,,0.01,WUHU216DAVISVP2,2013-02-18 22:44:00,
2013-02-18 17:49:00,51.7,30.9,30.11,SE,143,0.0,5.0,45,0.00,,,0.01,WUHU216DAVISVP2,2013-02-18 22:49:00,
2013-02-18 17:54:00,51.3,31.1,30.11,ESE,105,1.0,5.0,46,0.00,,,0.01,WUHU216DAVISVP2,2013-02-18 22:54:00,
2013-02-18 17:59:00,50.7,31.1,30.11,ESE,114,1.0,2.0,47,0.00,,,0.01,WUHU216DAVISVP2,2013-02-18 22:59:00,
2013-02-18 18:04:00,50.1,30.6,30.11,SE,129,1.0,2.0,47,0.00,,,0.01,WUHU216DAVISVP2,2013-02-18 23:04:00,
2013-02-18 18:09:00,49.7,29.7,30.11,SE,124,2.3,5.0,46,0.00,,,0.01,WUHU216DAVISVP2,2013-02-18 23:09:00,
2013-02-18 18:14:00,49.6,29.6,30.11,SE,124,2.0,5.0,46,0.00,,,0.01,WUHU216DAVISVP2,2013-02-18 23:14:00,
2013-02-18 18:19:00,49.4,29.4,30.11,SE,135,1.3,5.0,46,0.00,,,0.01,WUHU216DAVISVP2,2013-02-18 23:19:00,
2013-02-18 18:24:00,48.8,30.4,30.10,East,86,1.1,5.0,49,0.00,,,0.01,WUHU216DAVISVP2,2013-02-18 23:24:00,
2013-02-18 18:29:00,47.3,29.0,30.10,East,99,0.0,5.0,49,0.00,,,0.01,WUHU216DAVISVP2,2013-02-18 23:29:00,
2013-02-18 18:34:00,46.9,29.2,30.10,NE,38,1.5,2.0,50,0.00,,,0.01,WUHU216DAVISVP2,2013-02-18 23:34:00,
2013-02-18 18:39:00,45.8,29.6,30.10,ESE,111,1.5,2.0,53,0.00,,,0.01,WUHU216DAVISVP2,2013-02-18 23:39:00,
2013-02-18 18:44:00,44.6,29.4,30.10,ESE,111,1.0,2.0,55,0.00,,,0.01,WUHU216DAVISVP2,2013-02-18 23:44:00,
2013-02-18 18:49:00,43.4,29.6,30.09,ESE,111,1.0,2.0,58,0.00,,,0.01,WUHU216DAVISVP2,2013-02-18 23:49:00,
2013-02-18 18:54:00,42.1,30.0,30.09,East,96,1.0,2.0,62,0.00,,,0.01,WUHU216DAVISVP2,2013-02-18 23:54:00,
2013-02-18 18:59:00,41.1,29.9,30.09,East,96,0.0,2.0,64,0.00,,,0.01,WUHU216DAVISVP2,2013-02-18 23:59:00,
2013-02-18 19:04:00,40.3,29.9,30.09,East,96,1.0,2.0,66,0.00,,,0.01,WUHU216DAVISVP2,2013-02-19 00:04:00,
2013-02-18 19:09:00,39.8,29.4,30.09,SW,222,0.0,2.0,66,0.00,,,0.01,WUHU216DAVISVP2,2013-02-19 00:09:00,
2013-02-18 19:16:00,38.9,29.7,30.08,SSE,157,0.0,1.0,69,0.00,,,0.01,WUHU216DAVISVP2,2013-02-19 00:16:00,
2013-02-18 19:21:00,38.2,29.3,30.08,SSE,156,0.0,1.0,70,0.00,,,0.01,WUHU216DAVISVP2,2013-02-19 00:21:00,
2013-02-18 19:26:00,37.8,29.6,30.08,SSE,156,0.0,1.0,72,0.00,,,0.01,WUHU216DAVISVP2,2013-02-19 00:26:00,
2013-02-18 19:31:00,37.3,29.8,30.08,SW,235,1.0,2.0,74,0.00,,,0.01,WUHU216DAVISVP2,2013-02-19 00:31:00,
2013-02-18 19:36:00,36.8,29.3,30.08,West,262,0.0,2.0,74,0.00,,,0.01,WUHU216DAVISVP2,2013-02-19 00:36:00,
2013-02-18 19:41:00,36.1,29.0,30.08,WNW,283,1.0,2.0,75,0.00,,,0.01,WUHU216DAVISVP2,2013-02-19 00:41:00,
2013-02-18 19:46:00,35.5,29.0,30.08,WNW,283,0.0,2.0,77,0.00,,,0.01,WUHU216DAVISVP2,2013-02-19 00:46:00,
2013-02-18 19:51:00,35.2,29.1,30.07,WNW,283,0.0,1.0,78,0.00,,,0.01,WUHU216DAVISVP2,2013-02-19 00:51:00,
2013-02-18 19:56:00,35.0,29.2,30.08,WNW,283,1.0,1.0,79,0.00,,,0.01,WUHU216DAVISVP2,2013-02-19 00:56:00,
2013-02-18 20:01:00,34.8,29.3,30.07,West,265,0.0,1.0,80,0.00,,,0.01,WUHU216DAVISVP2,2013-02-19 01:01:00,
2013-02-18 20:06:00,34.2,28.7,30.06,ENE,77,1.0,1.0,80,0.00,,,0.01,WUHU216DAVISVP2,2013-02-19 01:06:00,
2013-02-18 20:12:00,34.0,28.5,30.06,ENE,77,0.0,1.0,80,0.00,,,0.01,WUHU216DAVISVP2,2013-02-19 01:12:00,
2013-02-18 20:17:00,33.7,28.8,30.06,ENE,76,1.0,1.0,82,0.00,,,0.01,WUHU216DAVISVP2,2013-02-19 01:17:00,
2013-02-18 20:22:00,33.5,28.9,30.06,ENE,77,1.0,1.0,83,0.00,,,0.01,WUHU216DAVISVP2,2013-02-19 01:22:00,
2013-02-18 20:27:00,33.3,28.7,30.05,ENE,77,1.0,1.0,83,0.00,,,0.01,WUHU216DAVISVP2,2013-02-19 01:27:00,
2013-02-18 20:32:00,32.7,27.8,30.05,NNE,22,1.0,2.0,82,0.00,,,0.01,WUHU216DAVISVP2,2013-02-19 01:32:00,
2013-02-18 20:37:00,32.0,27.4,30.05,SE,130,1.0,3.0,83,0.00,,,0.01,WUHU216DAVISVP2,2013-02-19 01:37:00,
2013-02-18 20:42:00,32.2,28.2,30.05,ENE,64,1.2,3.0,85,0.00,,,0.01,WUHU216DAVISVP2,2013-02-19 01:42:00,
2013-02-18 20:47:00,32.5,28.5,30.05,SE,145,1.5,3.0,85,0.00,,,0.01,WUHU216DAVISVP2,2013-02-19 01:47:00,
2013-02-18 20:52:00,32.9,28.6,30.04,ENE,67,1.0,3.0,84,0.00,,,0.01,WUHU216DAVISVP2,2013-02-19 01:52:00,
2013-02-18 20:57:00,33.1,28.8,30.04,East,83,1.4,3.0,84,0.00,,,0.01,WUHU216DAVISVP2,2013-02-19 01:57:00,
2013-02-18 21:02:00,33.5,28.9,30.05,WSW,248,1.8,3.0,83,0.00,,,0.01,WUHU216DAVISVP2,2013-02-19 02:02:00,
2013-02-18 21:07:00,36.4,29.9,30.05,East,89,1.0,11.0,77,0.00,,,0.01,WUHU216DAVISVP2,2013-02-19 02:07:00,
2013-02-18 21:12:00,35.7,28.9,30.05,ESE,114,1.0,11.0,76,0.00,,,0.01,WUHU216DAVISVP2,2013-02-19 02:12:00,
2013-02-18 21:17:00,35.0,28.9,30.05,SW,224,2.0,11.0,78,0.00,,,0.01,WUHU216DAVISVP2,2013-02-19 02:17:00,
2013-02-18 21:22:00,35.3,28.8,30.05,WSW,238,1.0,6.0,77,0.00,,,0.01,WUHU216DAVISVP2,2013-02-19 02:22:00,
2013-02-18 21:27:00,35.3,28.8,30.05,WSW,238,1.0,2.0,77,0.00,,,0.01,WUHU216DAVISVP2,2013-02-19 02:27:00,
2013-02-18 21:31:00,35.7,28.9,30.05,East,85,1.3,2.0,76,0.00,,,0.01,WUHU216DAVISVP2,2013-02-19 02:31:00,
2013-02-18 21:40:00,36.8,29.0,30.04,East,86,1.0,2.0,73,0.00,,,0.01,WUHU216DAVISVP2,2013-02-19 02:40:00,
2013-02-18 21:51:00,39.2,28.9,30.04,NNE,28,1.0,3.0,66,0.00,,,0.01,WUHU216DAVISVP2,2013-02-19 02:51:00,
2013-02-18 21:58:00,40.4,27.7,30.04,East,86,1.5,3.0,60,0.00,,,0.01,WUHU216DAVISVP2,2013-02-19 02:58:00,
2013-02-18 22:06:00,40.7,28.0,30.04,East,84,1.0,3.0,60,0.00,,,0.01,WUHU216DAVISVP2,2013-02-19 03:06:00,
2013-02-18 22:17:00,41.1,27.9,30.03,East,91,0.0,4.0,59,0.00,,,0.01,WUHU216DAVISVP2,2013-02-19 03:17:00,
2013-02-18 22:32:00,41.4,27.3,30.03,ESE,104,1.5,3.0,57,0.00,,,0.01,WUHU216DAVISVP2,2013-02-19 03:32:00,
2013-02-18 22:37:00,42.1,27.1,30.02,ENE,70,2.3,3.0,55,0.00,,,0.01,WUHU216DAVISVP2,2013-02-19 03:37:00,
2013-02-18 22:42:00,42.2,27.2,30.01,East,93,1.0,3.0,55,0.00,,,0.01,WUHU216DAVISVP2,2013-02-19 03:42:00,
2013-02-18 22:47:00,41.6,26.6,30.01,ENE,75,1.1,3.0,55,0.00,,,0.01,WUHU216DAVISVP2,2013-02-19 03:47:00,
2013-02-18 22:52:00,41.5,27.0,30.01,NE,56,1.0,3.0,56,0.00,,,0.01,WUHU216DAVISVP2,2013-02-19 03:52:00,
2013-02-18 22:57:00,42.7,26.7,30.01,SE,132,3.9,11.0,53,0.00,,,0.01,WUHU216DAVISVP2,2013-02-19 03:57:00,
2013-02-18 23:02:00,44.3,26.8,30.00,East,92,2.0,11.0,50,0.00,,,0.01,WUHU216DAVISVP2,2013-02-19 04:02:00,
2013-02-18 23:07:00,45.6,27.0,30.00,ENE,74,3.0,10.0,48,0.00,,,0.01,WUHU216DAVISVP2,2013-02-19 04:07:00,
2013-02-18 23:12:00,45.9,26.2,29.99,SE,139,3.0,10.0,46,0.00,,,0.01,WUHU216DAVISVP2,2013-02-19 04:12:00,
2013-02-18 23:17:00,46.2,27.1,29.99,SSE,152,1.3,8.0,47,0.00,,,0.01,WUHU216DAVISVP2,2013-02-19 04:17:00,
2013-02-18 23:22:00,45.8,26.1,29.99,SSE,165,3.0,8.0,46,0.00,,,0.01,WUHU216DAVISVP2,2013-02-19 04:22:00,
2013-02-18 23:27:00,46.0,26.3,29.98,WSW,249,2.0,6.0,46,0.00,,,0.01,WUHU216DAVISVP2,2013-02-19 04:27:00,
2013-02-18 23:32:00,45.3,26.2,29.98,NW,304,3.0,6.0,47,0.00,,,0.01,WUHU216DAVISVP2,2013-02-19 04:32:00,
2013-02-18 23:37:00,44.6,26.0,29.98,ENE,72,2.4,5.0,48,0.00,,,0.01,WUHU216DAVISVP2,2013-02-19 04:37:00,
2013-02-18 23:42:00,44.4,25.9,29.98,SW,217,1.0,5.0,48,0.00,,,0.01,WUHU216DAVISVP2,2013-02-19 04:42:00,
2013-02-18 23:47:00,44.4,25.9,29.98,SE,125,1.4,5.0,48,0.00,,,0.01,WUHU216DAVISVP2,2013-02-19 04:47:00,
2013-02-18 23:52:00,44.7,25.7,29.98,SSW,205,2.7,6.0,47,0.00,,,0.01,WUHU216DAVISVP2,2013-02-19 04:52:00,
2013-02-18 23:57:00,44.8,25.7,29.97,SW,224,3.0,6.0,47,0.00,,,0.01,WUHU216DAVISVP2,2013-02-19 04:57:00,